Time;durP1;ratioP1;P1;durP2;ratioP2;P2;SDS_P1;SDS_P2;PMS_P1;PMS_P2;Temp;Humidity;BMP_temperature;BMP_pressure;BME280_temperature;BME280_humidity;BME280_pressure;Samples;Min_cycle;Max_cycle;Signal;HPM_P1;HPM_P2
2021/12/24 00:02:18;;;;;;;16.27;9.60;;;;;;;3.03;70.05;102089.06;4978244;28;20034;-94
2021/12/24 00:05:32;;;;;;;15.68;9.15;;;;;;;3.31;70.18;102117.75;4962774;28;20098;-93
2021/12/24 00:08:00;;;;;;;12.90;8.20;;;;;;;3.21;69.93;102103.88;4974785;28;20035;-92
2021/12/24 00:13:50;;;;;;;14.35;8.75;;;;;;;3.26;70.10;102109.53;5010257;28;20128;-91
2021/12/24 00:16:48;;;;;;;14.45;8.88;;;;;;;3.27;70.34;102103.59;4963197;28;20030;-91
2021/12/24 00:20:43;;;;;;;15.38;8.98;;;;;;;3.21;70.37;102100.38;4977560;28;20180;-92
2021/12/24 00:37:30;;;;;;;13.82;8.45;;;;;;;3.03;69.79;102040.94;4951632;28;20054;-91
2021/12/24 00:40:18;;;;;;;13.55;8.90;;;;;;;3.20;70.20;102088.25;4940420;28;20044;-91
2021/12/24 00:43:03;;;;;;;15.70;8.65;;;;;;;3.29;69.44;102068.53;4939875;28;20496;-91
2021/12/24 00:45:37;;;;;;;12.52;8.20;;;;;;;3.09;69.94;102052.63;4945574;28;20049;-92
2021/12/24 00:48:16;;;;;;;14.25;8.77;;;;;;;3.20;70.41;102077.91;4943803;28;20113;-92
2021/12/24 01:00:10;;;;;;;13.98;8.55;;;;;;;3.19;70.54;102051.16;4974836;28;20050;-92
2021/12/24 01:02:44;;;;;;;13.18;8.35;;;;;;;3.22;70.12;102048.00;4975893;28;20027;-92
2021/12/24 01:05:38;;;;;;;13.45;8.60;;;;;;;3.33;69.57;102039.69;4956939;28;20039;-91
2021/12/24 01:08:05;;;;;;;13.68;8.70;;;;;;;3.34;69.40;102035.44;4940604;29;20054;-91
2021/12/24 01:10:58;;;;;;;13.35;8.80;;;;;;;3.30;69.58;102041.03;4956806;28;20027;-91
2021/12/24 01:17:21;;;;;;;14.60;8.57;;;;;;;3.16;70.23;102026.72;4975301;28;20050;-92
2021/12/24 01:26:12;;;;;;;13.55;8.35;;;;;;;3.26;69.79;102019.19;4954913;28;20051;-91
2021/12/24 01:41:19;;;;;;;11.88;7.72;;;;;;;3.42;69.05;101999.31;4947599;28;20183;-88
2021/12/24 01:43:47;;;;;;;14.35;8.57;;;;;;;3.26;69.52;101990.78;4941518;28;20039;-91
2021/12/24 01:46:18;;;;;;;14.98;8.05;;;;;;;2.79;69.33;101910.28;4944203;28;20085;-91
2021/12/24 01:49:08;;;;;;;13.38;8.32;;;;;;;3.19;69.51;101972.81;4938095;29;20128;-92
2021/12/24 01:51:39;;;;;;;13.63;8.43;;;;;;;2.91;69.94;101935.53;4928247;28;20031;-91
2021/12/24 01:54:14;;;;;;;14.70;8.77;;;;;;;3.15;70.22;101953.53;4956404;28;20116;-92
2021/12/24 02:00:05;;;;;;;12.43;7.75;;;;;;;3.11;69.38;101922.09;4972162;28;20130;-91
2021/12/24 02:02:59;;;;;;;13.43;8.32;;;;;;;3.16;69.91;101932.13;4937921;29;20031;-91
2021/12/24 02:05:50;;;;;;;14.63;8.60;;;;;;;3.32;68.89;101918.19;4947266;28;20085;-91
2021/12/24 02:08:17;;;;;;;13.90;8.50;;;;;;;2.92;69.63;101878.00;4928208;29;20057;-91
2021/12/24 02:11:02;;;;;;;11.85;7.72;;;;;;;3.37;69.06;101912.75;4928122;28;20556;-91
2021/12/24 02:13:45;;;;;;;15.50;8.73;;;;;;;3.46;68.63;101910.19;4934073;28;20501;-91
2021/12/24 02:17:08;;;;;;;13.35;7.85;;;;;;;3.03;69.36;101911.00;4956069;28;20493;-91
2021/12/24 02:31:57;;;;;;;13.45;8.07;;;;;;;3.35;68.71;101887.53;4984983;28;20080;-90
2021/12/24 02:34:22;;;;;;;12.85;7.70;;;;;;;2.90;69.02;101830.50;4958388;28;20030;-94
2021/12/24 02:37:04;;;;;;;12.45;7.80;;;;;;;3.08;68.98;101834.94;4956481;28;20119;-91
2021/12/24 02:39:30;;;;;;;11.70;7.80;;;;;;;3.17;69.05;101861.69;4959722;28;20141;-92
2021/12/24 02:45:18;;;;;;;12.38;7.75;;;;;;;3.10;69.07;101840.28;4992456;28;20092;-93
2021/12/24 02:48:14;;;;;;;13.50;7.85;;;;;;;2.94;69.06;101814.56;4964798;28;20029;-93
2021/12/24 02:53:58;;;;;;;11.82;7.63;;;;;;;3.14;69.43;101838.16;4975416;28;20099;-92
2021/12/24 02:56:54;;;;;;;10.85;7.28;;;;;;;3.22;69.20;101841.50;4955216;28;20031;-92
2021/12/24 02:59:28;;;;;;;13.07;8.23;;;;;;;3.04;69.24;101813.06;4973261;28;20045;-93
2021/12/24 03:01:57;;;;;;;13.75;7.63;;;;;;;2.82;68.92;101783.31;4959889;28;20490;-91
2021/12/24 03:04:27;;;;;;;11.82;7.63;;;;;;;3.09;68.94;101817.78;4959258;28;20034;-93
2021/12/24 03:07:13;;;;;;;11.48;7.10;;;;;;;3.29;69.13;101855.94;4960223;28;20026;-92
2021/12/24 03:09:42;;;;;;;10.85;7.45;;;;;;;3.13;69.32;101854.38;4959412;28;20034;-91
2021/12/24 03:12:34;;;;;;;14.85;7.93;;;;;;;3.11;69.18;101842.09;4971735;28;20046;-93
2021/12/24 03:15:07;;;;;;;11.68;7.30;;;;;;;2.75;69.63;101807.56;4946943;28;20045;-93
2021/12/24 03:17:46;;;;;;;11.65;7.82;;;;;;;3.02;69.78;101835.22;4959344;28;20162;-92
2021/12/24 03:23:38;;;;;;;12.88;8.05;;;;;;;3.03;68.72;101795.78;5002404;28;20040;-93
2021/12/24 03:26:22;;;;;;;11.65;7.47;;;;;;;3.04;68.75;101799.28;4951727;28;20439;-94
2021/12/24 03:28:49;;;;;;;12.15;7.70;;;;;;;2.95;69.44;101790.63;4957256;28;20143;-92
2021/12/24 03:31:17;;;;;;;12.07;7.43;;;;;;;2.87;68.63;101750.22;4963509;28;20031;-93
2021/12/24 03:37:16;;;;;;;10.68;6.80;;;;;;;3.03;69.08;101800.94;4978118;28;20124;-94
2021/12/24 03:39:47;;;;;;;;;;;;;;;3.22;69.51;101814.03;4966936;28;20037;-92
2021/12/24 03:42:38;;;;;;;11.68;7.35;;;;;;;3.23;68.83;101805.50;4960388;28;19940;-92
2021/12/24 03:45:37;;;;;;;12.43;7.25;;;;;;;3.15;68.75;101796.09;4960879;28;20066;-93
2021/12/24 03:48:15;;;;;;;10.32;6.80;;;;;;;2.65;69.30;101718.03;4982849;28;20069;-93
2021/12/24 03:51:01;;;;;;;14.02;7.72;;;;;;;2.71;69.00;101725.50;4971351;28;20494;-93
2021/12/24 03:56:50;;;;;;;9.70;6.57;;;;;;;2.73;70.40;101752.34;4995918;28;20127;-88
2021/12/24 03:59:15;;;;;;;11.27;6.78;;;;;;;3.36;68.04;101789.56;4981896;28;20045;-89
2021/12/24 04:01:43;;;;;;;11.73;7.18;;;;;;;2.74;69.66;101769.63;4958901;28;20061;-91
2021/12/24 04:04:11;;;;;;;11.30;6.90;;;;;;;2.91;69.11;101778.16;4967931;28;20104;-92
2021/12/24 04:06:40;;;;;;;11.88;7.22;;;;;;;2.71;69.20;101733.22;4967187;28;20027;-90
2021/12/24 04:09:29;;;;;;;9.70;6.60;;;;;;;3.11;69.04;101801.72;4958933;28;20045;-89
2021/12/24 04:11:58;;;;;;;12.55;7.57;;;;;;;3.07;68.86;101776.38;4949677;28;20051;-91
2021/12/24 04:14:33;;;;;;;10.75;7.05;;;;;;;3.04;68.03;101752.81;4962061;28;20089;-91
2021/12/24 04:17:01;;;;;;;11.93;6.80;;;;;;;3.09;68.49;101768.75;4961691;28;20403;-88
2021/12/24 04:25:04;;;;;;;11.05;7.30;;;;;;;3.00;69.10;101776.50;4981221;28;20045;-91
2021/12/24 04:28:34;;;;;;;11.30;7.00;;;;;;;3.14;69.56;101783.06;4946923;28;20112;-92
2021/12/24 04:31:46;;;;;;;10.82;6.82;;;;;;;2.97;70.03;101781.38;4957038;28;20105;-91
2021/12/24 05:02:05;;;;;;;10.68;7.05;;;;;;;2.57;69.27;101706.03;4969917;28;20049;-91
2021/12/24 05:05:03;;;;;;;10.52;6.25;;;;;;;3.01;69.23;101752.53;4973412;28;20089;-93
2021/12/24 05:10:49;;;;;;;11.52;6.75;;;;;;;3.09;69.35;101753.28;4954240;28;20042;-91
2021/12/24 05:13:20;;;;;;;11.20;6.47;;;;;;;3.17;68.51;101750.69;4971096;28;20081;-91
2021/12/24 05:16:12;;;;;;;10.88;6.85;;;;;;;3.31;67.97;101743.44;4942075;28;20027;-91
2021/12/24 05:25:43;;;;;;;13.70;6.80;;;;;;;2.96;68.39;101697.88;4958495;28;20070;-92
2021/12/24 05:28:24;;;;;;;9.80;6.00;;;;;;;2.78;68.75;101676.31;4943225;28;20031;-93
2021/12/24 05:31:22;;;;;;;10.95;6.63;;;;;;;3.07;69.20;101750.56;4923080;28;20520;-92
2021/12/24 05:33:56;;;;;;;10.75;6.50;;;;;;;2.74;68.80;101696.50;4970609;28;20042;-92
2021/12/24 05:36:30;;;;;;;10.43;6.20;;;;;;;3.09;68.63;101735.22;4942559;28;20106;-92
2021/12/24 05:38:58;;;;;;;10.23;6.30;;;;;;;2.88;68.03;101667.84;4939862;28;20477;-92
2021/12/24 05:41:24;;;;;;;12.43;7.03;;;;;;;2.87;69.11;101722.75;4951338;29;20065;-92
2021/12/24 05:44:27;;;;;;;10.55;6.45;;;;;;;3.09;68.74;101740.38;4939104;28;20031;-91
2021/12/24 05:46:53;;;;;;;10.88;6.57;;;;;;;3.23;68.50;101745.22;4943532;29;20042;-91
2021/12/24 05:50:06;;;;;;;11.80;6.88;;;;;;;3.37;67.74;101736.28;4938107;29;20027;-92
2021/12/24 05:52:47;;;;;;;9.90;6.60;;;;;;;2.91;68.82;101695.59;4950090;28;20038;-91
2021/12/24 05:55:30;;;;;;;10.45;6.80;;;;;;;2.93;68.92;101696.66;4951314;28;20413;-91
2021/12/24 05:57:55;;;;;;;9.98;6.47;;;;;;;2.91;68.56;101699.09;4927170;28;20118;-90
2021/12/24 06:00:31;;;;;;;11.32;6.70;;;;;;;2.49;69.17;101670.84;4943642;28;20050;-90
2021/12/24 06:03:03;;;;;;;12.02;6.60;;;;;;;3.19;68.33;101737.94;4962401;28;20031;-90
2021/12/24 06:05:53;;;;;;;10.80;6.47;;;;;;;3.04;69.07;101730.50;4982136;28;20105;-92
2021/12/24 06:08:50;;;;;;;10.40;6.60;;;;;;;3.20;68.54;101734.63;4946041;28;20035;-92
2021/12/24 06:11:36;;;;;;;10.13;6.28;;;;;;;2.92;69.40;101733.53;4947762;28;20170;-91
2021/12/24 06:14:16;;;;;;;9.68;6.30;;;;;;;2.71;69.07;101691.03;4942907;28;20122;-92
2021/12/24 06:17:09;;;;;;;11.18;6.70;;;;;;;2.98;69.34;101724.72;4938978;28;20034;-91
2021/12/24 06:20:13;;;;;;;10.07;6.43;;;;;;;3.26;68.26;101728.38;4948603;29;20042;-90
2021/12/24 06:23:01;;;;;;;9.98;6.45;;;;;;;3.16;68.65;101733.41;4958224;28;20381;-90
2021/12/24 06:26:16;;;;;;;9.63;6.32;;;;;;;3.12;68.82;101741.59;4940182;28;20031;-90
2021/12/24 06:29:01;;;;;;;8.48;5.80;;;;;;;3.13;68.32;101737.34;4945878;28;20035;-89
2021/12/24 06:31:32;;;;;;;11.02;6.63;;;;;;;2.81;69.25;101707.56;4962260;28;20567;-90
2021/12/24 06:37:20;;;;;;;11.50;6.38;;;;;;;2.91;68.74;101709.41;4989022;28;20049;-93
2021/12/24 06:39:50;;;;;;;11.13;6.78;;;;;;;2.95;69.21;101708.06;4970902;28;20026;-91
2021/12/24 06:42:58;;;;;;;9.57;6.40;;;;;;;3.18;68.55;101720.66;4956998;28;20050;-90
2021/12/24 06:45:37;;;;;;;9.00;5.90;;;;;;;3.02;68.30;101689.84;4969104;28;20034;-91
2021/12/24 06:48:14;;;;;;;9.27;6.38;;;;;;;3.00;68.43;101691.34;4950258;28;20121;-92
2021/12/24 06:50:39;;;;;;;10.25;6.35;;;;;;;2.70;68.15;101650.53;4975843;28;20049;-90
2021/12/24 06:53:19;;;;;;;8.80;5.93;;;;;;;3.06;67.85;101703.19;4978725;28;20082;-90
2021/12/24 06:56:07;;;;;;;9.38;6.35;;;;;;;3.15;68.57;101728.97;4960035;28;20069;-92
2021/12/24 06:58:34;;;;;;;10.73;6.45;;;;;;;3.23;68.17;101722.00;4982395;28;20514;-94
2021/12/24 07:01:02;;;;;;;9.60;6.68;;;;;;;3.09;68.44;101735.22;4971777;28;20022;-94
2021/12/24 07:03:28;;;;;;;10.27;6.40;;;;;;;3.05;68.30;101708.22;4960710;28;20014;-92
2021/12/24 07:05:56;;;;;;;9.50;6.13;;;;;;;3.13;68.52;101720.19;4975839;28;20030;-90
2021/12/24 07:08:22;;;;;;;10.45;6.40;;;;;;;2.75;69.18;101701.81;4961431;28;20129;-88
2021/12/24 07:10:58;;;;;;;10.68;6.72;;;;;;;3.12;68.77;101727.78;4945976;28;20061;-89
2021/12/24 07:13:34;;;;;;;8.65;5.82;;;;;;;2.70;69.15;101676.31;4955101;28;20034;-89
2021/12/24 07:16:03;;;;;;;9.93;6.45;;;;;;;2.92;68.99;101700.94;4957042;28;20039;-88
2021/12/24 07:18:40;;;;;;;10.10;6.22;;;;;;;3.08;68.89;101711.09;4952419;28;20039;-90
2021/12/24 07:21:05;;;;;;;10.93;6.25;;;;;;;3.23;68.64;101707.41;4940956;28;20177;-89
2021/12/24 07:23:31;;;;;;;11.02;7.15;;;;;;;3.12;68.78;101674.50;4969209;28;20117;-84
2021/12/24 07:25:58;;;;;;;11.50;6.45;;;;;;;3.03;69.36;101708.06;4993448;28;20506;-87
2021/12/24 07:28:27;;;;;;;10.55;6.68;;;;;;;2.99;68.51;101656.91;4974401;28;20053;-87
2021/12/24 07:30:53;;;;;;;11.55;6.70;;;;;;;3.09;68.70;101651.00;4984059;28;20046;-87
2021/12/24 07:33:20;;;;;;;13.20;7.80;;;;;;;3.17;68.36;101685.28;4985077;28;20102;-87
2021/12/24 07:35:46;;;;;;;10.90;6.82;;;;;;;2.63;69.36;101610.34;4977501;28;20023;-88
2021/12/24 07:38:15;;;;;;;11.38;7.30;;;;;;;2.56;69.12;101619.16;4950756;28;20034;-87
2021/12/24 07:40:56;;;;;;;12.45;7.32;;;;;;;2.85;69.58;101681.31;4969176;28;20118;-88
2021/12/24 07:43:24;;;;;;;12.07;7.80;;;;;;;2.92;69.26;101669.97;4975629;28;20681;-89
2021/12/24 07:45:54;;;;;;;11.50;6.82;;;;;;;2.92;68.75;101649.34;4959586;28;20247;-87
2021/12/24 07:48:43;;;;;;;13.55;7.50;;;;;;;2.87;68.74;101658.28;4968711;28;20117;-90
2021/12/24 07:54:30;;;;;;;;;;;;;;;2.64;69.88;101669.78;4979575;28;20104;-92
2021/12/24 07:57:04;;;;;;;;;;;;;;;2.82;69.54;101675.88;4942233;28;19918;-90
2021/12/24 07:59:44;;;;;;;12.57;7.93;;;;;;;2.92;68.39;101636.44;4951614;28;19920;-90
2021/12/24 08:02:15;;;;;;;13.60;7.95;;;;;;;2.83;69.62;101675.09;4962636;28;20029;-92
2021/12/24 08:04:58;;;;;;;12.88;8.18;;;;;;;2.93;68.84;101629.59;4967054;28;20499;-91
2021/12/24 08:07:31;;;;;;;14.60;8.02;;;;;;;2.88;69.08;101649.78;4967799;28;20026;-92
2021/12/24 08:10:31;;;;;;;13.93;8.27;;;;;;;3.12;69.14;101665.84;4957742;28;20035;-91
2021/12/24 08:13:02;;;;;;;14.88;8.45;;;;;;;3.11;68.80;101675.28;4955565;28;20062;-90
2021/12/24 08:15:49;;;;;;;12.90;8.05;;;;;;;3.24;68.50;101660.22;4960260;28;20030;-93
2021/12/24 08:18:21;;;;;;;;;;;;;;;3.20;68.29;101657.19;4964181;28;20034;-91
2021/12/24 08:20:47;;;;;;;12.82;7.57;;;;;;;3.18;68.35;101651.88;4959159;28;19997;-87
2021/12/24 08:23:13;;;;;;;13.48;8.60;;;;;;;3.16;68.47;101637.00;4958846;28;20114;-88
2021/12/24 08:25:39;;;;;;;15.20;8.18;;;;;;;3.17;68.48;101639.72;4974504;28;20054;-87
2021/12/24 08:28:12;;;;;;;14.05;8.50;;;;;;;2.94;67.98;101600.44;4978108;28;20030;-89
2021/12/24 08:30:54;;;;;;;16.38;8.13;;;;;;;2.94;68.72;101644.31;4961242;28;20058;-90
2021/12/24 08:33:21;;;;;;;15.27;8.80;;;;;;;2.89;68.17;101594.84;4982886;28;20032;-89
2021/12/24 08:35:47;;;;;;;14.27;9.10;;;;;;;2.62;68.57;101563.03;4982957;28;20026;-91
2021/12/24 08:38:13;;;;;;;16.38;8.85;;;;;;;2.52;69.05;101559.38;4978899;28;20419;-90
2021/12/24 08:40:40;;;;;;;14.05;8.60;;;;;;;2.95;69.44;101628.06;4962576;28;20045;-88
2021/12/24 08:43:21;;;;;;;14.00;8.55;;;;;;;2.56;69.41;101579.53;4959317;28;20031;-89
2021/12/24 08:45:54;;;;;;;15.50;8.32;;;;;;;2.77;68.86;101578.16;4964737;28;20034;-92
2021/12/24 08:48:31;;;;;;;13.38;8.20;;;;;;;2.60;69.98;101587.75;4962162;28;20442;-91
2021/12/24 08:51:00;;;;;;;;;;;;;;;2.84;69.72;101598.66;4971300;28;20033;-91
2021/12/24 08:53:26;;;;;;;15.18;8.82;;;;;;;3.20;68.35;101590.09;4965540;28;19925;-92
2021/12/24 08:55:54;;;;;;;15.45;8.82;;;;;;;2.71;68.33;101520.81;4990520;28;20026;-89
2021/12/24 08:58:21;;;;;;;15.30;8.95;;;;;;;2.97;67.78;101542.31;4963459;28;20034;-89
2021/12/24 09:00:57;;;;;;;16.95;9.48;;;;;;;3.00;69.05;101591.63;4962125;28;20031;-89
2021/12/24 09:03:52;;;;;;;16.25;9.30;;;;;;;3.02;68.28;101589.19;4961590;28;20035;-89
2021/12/24 09:06:28;;;;;;;17.20;9.35;;;;;;;2.82;69.06;101539.16;4957896;28;20050;-90
2021/12/24 09:08:54;;;;;;;16.17;9.77;;;;;;;2.87;67.98;101494.84;4957216;28;20081;-90
2021/12/24 09:11:20;;;;;;;15.40;9.88;;;;;;;2.91;68.48;101523.66;4959834;28;20039;-88
2021/12/24 09:14:07;;;;;;;17.60;10.90;;;;;;;2.98;69.09;101567.34;4961441;28;20038;-93
2021/12/24 09:16:53;;;;;;;17.30;10.27;;;;;;;3.03;69.12;101565.25;4956169;28;20070;-92
2021/12/24 09:19:51;;;;;;;16.02;9.98;;;;;;;3.06;69.30;101562.94;4971130;28;20081;-92
2021/12/24 09:22:38;;;;;;;15.85;10.23;;;;;;;2.99;68.64;101543.38;4979936;28;20124;-92
2021/12/24 09:25:15;;;;;;;16.30;10.10;;;;;;;2.97;69.89;101531.09;4958753;28;20023;-91
2021/12/24 09:28:17;;;;;;;15.88;9.88;;;;;;;2.85;69.48;101516.25;4975291;28;20027;-91
2021/12/24 09:31:15;;;;;;;17.58;10.45;;;;;;;3.26;68.32;101511.56;4954958;28;20055;-91
2021/12/24 09:33:48;;;;;;;19.27;10.52;;;;;;;2.93;69.11;101498.94;4969571;28;20045;-91
2021/12/24 09:36:14;;;;;;;15.70;10.10;;;;;;;3.12;68.41;101501.59;4949821;28;20130;-88
2021/12/24 09:38:44;;;;;;;15.98;10.43;;;;;;;2.95;69.04;101487.09;4972508;28;20125;-92
2021/12/24 09:41:40;;;;;;;16.27;10.40;;;;;;;3.09;68.96;101498.75;4941525;28;20027;-90
2021/12/24 09:44:10;;;;;;;17.23;10.25;;;;;;;2.72;69.33;101465.91;4940701;28;20504;-88
2021/12/24 09:47:03;;;;;;;16.95;10.73;;;;;;;2.74;69.72;101505.66;4952125;28;20112;-89
2021/12/24 09:49:29;;;;;;;17.70;10.70;;;;;;;2.50;69.93;101448.38;4948056;28;20046;-89
2021/12/24 09:52:00;;;;;;;19.45;10.60;;;;;;;2.74;70.41;101478.19;4967313;28;20039;-90
2021/12/24 09:54:26;;;;;;;18.98;10.23;;;;;;;2.52;69.66;101441.72;4942299;28;20031;-88
2021/12/24 09:56:56;;;;;;;18.88;10.25;;;;;;;2.49;70.47;101420.78;4952284;28;20141;-89
2021/12/24 09:59:44;;;;;;;21.05;10.50;;;;;;;2.91;70.35;101455.69;4949044;28;20035;-89
2021/12/24 10:02:28;;;;;;;18.02;9.93;;;;;;;3.22;68.67;101436.28;4940156;28;20042;-91
2021/12/24 10:04:54;;;;;;;17.02;9.98;;;;;;;2.76;69.09;101378.66;4967774;28;20520;-91
2021/12/24 10:10:44;;;;;;;18.90;9.80;;;;;;;2.73;69.89;101440.28;4962264;28;20511;-92
2021/12/24 10:13:35;;;;;;;19.08;10.55;;;;;;;2.91;69.88;101445.38;4935442;28;20031;-93
2021/12/24 10:16:43;;;;;;;15.82;9.93;;;;;;;3.00;69.43;101426.50;4946451;28;20040;-90
2021/12/24 10:19:47;;;;;;;20.25;10.43;;;;;;;2.71;70.09;101418.59;4962189;28;20100;-93
2021/12/24 10:22:43;;;;;;;18.83;10.45;;;;;;;2.98;69.29;101414.22;4944359;28;20435;-90
2021/12/24 10:28:32;;;;;;;17.52;10.02;;;;;;;2.69;69.99;101394.34;4954813;28;20042;-90
2021/12/24 10:31:18;;;;;;;15.65;10.52;;;;;;;2.88;69.99;101422.78;4942716;28;20054;-90
2021/12/24 10:34:21;;;;;;;19.58;10.48;;;;;;;2.90;69.41;101379.06;4954132;28;20026;-93
2021/12/24 10:36:58;;;;;;;15.93;9.80;;;;;;;3.00;69.18;101395.53;4972618;28;20622;-87
2021/12/24 10:40:13;;;;;;;17.58;10.85;;;;;;;2.80;69.96;101385.94;4975228;28;20029;-87
2021/12/24 10:42:52;;;;;;;19.08;10.90;;;;;;;2.85;69.47;101388.94;4970173;28;20526;-90
2021/12/24 10:45:22;;;;;;;18.45;10.70;;;;;;;2.75;69.73;101369.13;4976414;28;20023;-92
2021/12/24 10:54:57;;;;;;;20.73;11.07;;;;;;;2.74;69.81;101346.66;4987888;28;20041;-90
2021/12/24 11:01:07;;;;;;;17.77;11.20;;;;;;;2.88;69.21;101334.16;4992563;28;20097;-92
2021/12/24 11:03:44;;;;;;;17.17;10.43;;;;;;;2.86;69.97;101326.28;4960065;28;20034;-91
2021/12/24 11:06:51;;;;;;;17.73;10.43;;;;;;;2.81;70.15;101323.25;4975067;28;20088;-91
2021/12/24 11:09:34;;;;;;;17.77;10.52;;;;;;;2.67;70.20;101295.31;4880796;29;20035;-90
2021/12/24 11:12:00;;;;;;;19.73;10.55;;;;;;;2.70;69.83;101261.16;4967743;28;20060;-89
2021/12/24 11:14:31;;;;;;;17.80;10.00;;;;;;;2.92;69.26;101271.78;4960973;28;20033;-90
2021/12/24 11:17:06;;;;;;;16.35;10.23;;;;;;;2.95;69.83;101284.97;4959474;28;20036;-91
2021/12/24 11:23:10;;;;;;;16.17;10.43;;;;;;;2.83;70.65;101288.19;4993837;28;20045;-95
2021/12/24 11:25:58;;;;;;;18.20;10.73;;;;;;;2.91;70.31;101291.50;4963103;28;20038;-95
2021/12/24 11:28:27;;;;;;;14.52;9.73;;;;;;;2.83;69.83;101251.19;4944476;28;20061;-92
2021/12/24 11:31:04;;;;;;;19.00;9.90;;;;;;;2.62;70.51;101245.88;4953335;28;20053;-94
2021/12/24 11:34:07;;;;;;;17.92;10.30;;;;;;;2.96;70.34;101273.88;4954468;28;20103;-93
2021/12/24 11:39:56;;;;;;;16.30;9.95;;;;;;;2.96;70.55;101271.28;4990447;28;20050;-86
2021/12/24 11:42:22;;;;;;;21.45;10.63;;;;;;;2.62;69.47;101191.75;4968805;28;20038;-92
2021/12/24 11:45:07;;;;;;;17.13;10.45;;;;;;;2.80;70.19;101236.34;4957099;28;20039;-91
2021/12/24 11:47:46;;;;;;;16.98;10.60;;;;;;;2.21;69.81;101137.25;4974717;28;20031;-92
2021/12/24 11:50:25;;;;;;;18.48;10.52;;;;;;;3.17;69.27;101267.19;4962887;28;20030;-92
2021/12/24 11:53:03;;;;;;;18.40;10.85;;;;;;;2.89;70.13;101267.25;4960029;28;20042;-90
2021/12/24 11:55:40;;;;;;;16.13;10.15;;;;;;;2.94;70.10;101252.19;4947801;28;20034;-93
2021/12/24 11:58:24;;;;;;;18.13;10.40;;;;;;;2.42;69.91;101173.53;4964359;28;20031;-92
2021/12/24 12:00:53;;;;;;;17.85;10.52;;;;;;;1.92;70.28;101119.06;5026180;23;20043;-94
2021/12/24 12:03:53;;;;;;;17.67;10.23;;;;;;;2.92;70.23;101287.25;4967403;28;20050;-95
2021/12/24 12:06:25;;;;;;;17.65;10.45;;;;;;;2.99;70.47;101276.75;4966875;28;20022;-95
2021/12/24 12:09:13;;;;;;;19.48;10.68;;;;;;;2.95;70.84;101266.91;4973921;28;20085;-92
2021/12/24 12:11:58;;;;;;;19.73;10.32;;;;;;;2.94;70.13;101272.81;4964032;28;20041;-93
2021/12/24 12:15:14;;;;;;;19.42;10.50;;;;;;;2.89;70.70;101271.50;4964272;28;20030;-94
2021/12/24 12:18:04;;;;;;;16.42;10.18;;;;;;;2.87;70.33;101253.28;4964953;28;20027;-93
2021/12/24 12:20:57;;;;;;;16.38;10.15;;;;;;;2.88;71.35;101252.53;4961147;28;20058;-95
2021/12/24 12:26:56;;;;;;;19.00;10.57;;;;;;;3.06;70.06;101267.13;4996219;28;20042;-94
2021/12/24 12:29:52;;;;;;;21.27;12.88;;;;;;;2.95;70.38;101261.75;4981868;28;20019;-93
2021/12/24 12:32:39;;;;;;;19.60;11.75;;;;;;;2.77;71.08;101240.31;4963012;28;20037;-95
2021/12/24 12:35:44;;;;;;;18.25;11.30;;;;;;;2.89;70.79;101262.09;4957160;28;20027;-94
2021/12/24 12:38:48;;;;;;;19.42;11.50;;;;;;;2.94;71.17;101247.03;4961770;28;20109;-89
2021/12/24 12:41:38;;;;;;;19.60;11.95;;;;;;;2.23;70.49;101096.19;4975943;28;20125;-93
2021/12/24 12:44:15;;;;;;;18.02;11.05;;;;;;;2.19;70.49;101083.78;4962688;28;20027;-92
2021/12/24 12:47:07;;;;;;;;;;;;;;;3.09;70.52;101225.22;4958590;28;20050;-94
2021/12/24 12:49:34;;;;;;;17.38;10.98;;;;;;;2.53;70.76;101146.16;4964289;28;19914;-95
2021/12/24 12:52:27;;;;;;;17.23;10.68;;;;;;;3.00;70.94;101221.78;4967374;28;20030;-95
2021/12/24 12:54:58;;;;;;;21.67;11.52;;;;;;;2.89;70.63;101195.03;4954749;28;20097;-93
2021/12/24 12:57:30;;;;;;;18.65;11.10;;;;;;;2.34;70.24;101079.13;5279829;23;20069;-94
2021/12/24 13:00:08;;;;;;;18.95;11.30;;;;;;;3.14;70.65;101202.41;4966464;28;20029;-96
2021/12/24 13:03:11;;;;;;;19.17;10.80;;;;;;;3.25;70.04;101192.28;4982317;28;20030;-93
2021/12/24 13:06:01;;;;;;;18.90;11.35;;;;;;;2.47;69.76;101081.16;4961880;28;20038;-92
2021/12/24 13:08:30;;;;;;;17.35;10.60;;;;;;;2.52;70.24;101083.38;4960898;28;20420;-93
2021/12/24 13:11:14;;;;;;;18.45;10.85;;;;;;;3.22;70.33;101193.69;4942675;28;20034;-94
2021/12/24 13:14:21;;;;;;;19.15;11.05;;;;;;;3.29;70.03;101193.47;4955779;28;20033;-93
2021/12/24 13:17:16;;;;;;;18.80;10.98;;;;;;;3.11;69.69;101166.94;4970854;28;20031;-94
2021/12/24 13:25:26;;;;;;;16.75;10.45;;;;;;;3.17;70.07;101189.78;4958760;28;20041;-91
2021/12/24 13:27:58;;;;;;;18.40;10.90;;;;;;;3.28;70.32;101193.31;4997926;28;20025;-95
2021/12/24 13:30:58;;;;;;;17.88;10.30;;;;;;;3.28;69.88;101167.50;4947419;28;20042;-92
2021/12/24 13:33:25;;;;;;;17.42;10.68;;;;;;;3.17;69.96;101144.22;4961905;28;20041;-90
2021/12/24 13:36:02;;;;;;;18.58;10.85;;;;;;;3.10;70.24;101130.66;4965293;28;20081;-91
2021/12/24 13:38:31;;;;;;;;;;;;;;;3.21;69.95;101154.06;4961919;28;20435;-90
2021/12/24 13:41:15;;;;;;;16.95;9.73;;;;;;;3.03;70.47;101124.06;4976942;28;19941;-93
2021/12/24 13:43:45;;;;;;;16.08;9.80;;;;;;;3.08;69.88;101127.94;4961463;28;20037;-94
2021/12/24 13:46:39;;;;;;;16.98;9.80;;;;;;;3.22;70.59;101167.88;4957820;28;20026;-93
2021/12/24 13:49:23;;;;;;;16.75;10.00;;;;;;;3.38;69.21;101121.09;4956739;28;20038;-94
2021/12/24 13:55:40;;;;;;;16.25;9.95;;;;;;;3.39;70.00;101167.72;4933818;29;20465;-92
2021/12/24 13:58:50;;;;;;;16.90;10.13;;;;;;;3.40;69.50;101166.03;4914774;29;20052;-92
2021/12/24 14:01:34;;;;;;;16.92;10.00;;;;;;;3.25;69.45;101137.19;4902149;29;20071;-92
2021/12/24 14:07:33;;;;;;;16.92;10.40;;;;;;;2.79;70.71;101115.88;4938456;29;20043;-92
2021/12/24 14:09:59;;;;;;;17.17;10.45;;;;;;;2.82;70.45;101115.28;4928762;29;20035;-91
2021/12/24 14:12:35;;;;;;;17.60;10.65;;;;;;;2.98;70.63;101138.19;4946068;28;20038;-92
2021/12/24 14:15:09;;;;;;;17.02;10.20;;;;;;;2.71;70.77;101105.66;4960346;28;20035;-91
2021/12/24 14:18:17;;;;;;;17.50;10.18;;;;;;;2.92;70.94;101136.00;4976225;28;20034;-91
2021/12/24 14:21:44;;;;;;;16.60;10.18;;;;;;;2.95;70.86;101141.41;4980533;28;20042;-92
2021/12/24 14:24:06;;;;;;;16.23;10.52;;;;;;;2.79;71.27;101095.25;4977868;28;20037;-92
2021/12/24 14:26:35;;;;;;;17.33;10.23;;;;;;;2.80;71.09;101120.31;4957522;28;20495;-90
2021/12/24 14:29:07;;;;;;;17.88;10.88;;;;;;;2.75;71.22;101108.69;4949031;28;20030;-88
2021/12/24 14:32:04;;;;;;;16.08;9.60;;;;;;;3.09;71.66;101176.22;4964564;28;20034;-88
2021/12/24 14:34:51;;;;;;;16.73;10.38;;;;;;;3.07;71.66;101177.75;4948110;28;20124;-89
2021/12/24 14:37:49;;;;;;;;;;;;;;;3.11;71.30;101179.84;4968599;28;20046;-95
2021/12/24 14:40:20;;;;;;;15.70;9.40;;;;;;;3.06;71.17;101166.50;4974828;28;19917;-92
2021/12/24 14:42:47;;;;;;;16.88;10.75;;;;;;;2.85;71.19;101119.03;4965678;28;20033;-91
2021/12/24 14:53:52;;;;;;;16.33;10.30;;;;;;;2.16;71.29;100995.88;5722741;23;20030;-93
2021/12/24 14:59:40;;;;;;;14.60;9.75;;;;;;;3.11;71.32;101159.19;5003121;28;20116;-95
2021/12/24 15:02:14;;;;;;;17.65;9.95;;;;;;;2.15;71.59;100992.41;4964072;28;20523;-95
2021/12/24 15:05:08;;;;;;;15.65;10.25;;;;;;;2.48;71.46;101022.00;4969326;28;20476;-96
2021/12/24 15:07:40;;;;;;;17.25;9.93;;;;;;;3.04;71.16;101123.25;4961860;28;20053;-94
2021/12/24 15:10:20;;;;;;;15.77;9.93;;;;;;;2.73;70.58;101052.56;4949780;28;20030;-94
2021/12/24 15:12:57;;;;;;;15.73;9.60;;;;;;;2.24;70.85;100995.84;4951190;28;20066;-92
2021/12/24 15:15:30;;;;;;;16.95;10.32;;;;;;;3.22;70.86;101153.31;4960637;28;20027;-93
2021/12/24 15:17:56;;;;;;;14.88;9.38;;;;;;;2.88;70.89;101099.44;4957887;28;20031;-88
2021/12/24 15:20:22;;;;;;;15.90;10.05;;;;;;;2.80;71.07;101078.13;4962304;28;20077;-88
2021/12/24 15:22:48;;;;;;;17.08;10.40;;;;;;;3.16;70.68;101142.44;4955321;28;20031;-88
2021/12/24 15:25:17;;;;;;;16.42;10.13;;;;;;;2.98;70.86;101122.72;4955508;28;20041;-88
2021/12/24 15:28:07;;;;;;;17.48;10.35;;;;;;;3.32;70.45;101167.91;4963508;28;20404;-92